Meno, Oklahoma
Current Conditions -  °F | °C
As of 2:58 AM on Wednesday 28 Jan 2015 (Local Time) from KEND Reporting Station
Clear Clear  
Wind Chill: 43°   Ceiling: Unl
Heat Index: 48°   Visibility: 10mi
Dew Point: 38°   Wind: 14mph
Humidity: 68%   Direction: 190°S
Pressure: 29.97"   Gusts: NA
Location:  36.39°N, 98.18°W
Report Text: KEND 280858Z AUTO 19012KT 10SM CLR 09/03 A2997 RMK AO2 SLP145 T00910034 $
Loading
Personal Weather Stations






























Interactive Weather Map New forecast layout! Learn more

10-Day Weather Forecast

Advertisements
Track Severe Weather on mobile